createdAt,value
2022-12-03T00:00:16.042Z,10.10
2022-12-03T00:02:42.679Z,10.38
2022-12-03T00:05:10.140Z,9.30
2022-12-03T00:07:36.598Z,9.77
2022-12-03T00:10:04.294Z,10.17
2022-12-03T00:12:30.728Z,10.20
2022-12-03T00:14:57.407Z,10.30
2022-12-03T00:17:23.875Z,10.45
2022-12-03T00:19:50.423Z,10.25
2022-12-03T00:22:16.793Z,10.50
2022-12-03T00:24:43.103Z,10.55
2022-12-03T00:27:09.638Z,9.93
2022-12-03T00:29:36.091Z,9.82
2022-12-03T00:32:02.510Z,10.30
2022-12-03T00:34:28.934Z,10.43
2022-12-03T00:36:55.447Z,10.77
2022-12-03T00:39:21.989Z,10.25
2022-12-03T00:41:48.518Z,10.98
2022-12-03T00:44:14.854Z,10.90
2022-12-03T00:46:41.399Z,10.33
2022-12-03T00:49:08.790Z,9.40
2022-12-03T00:51:35.785Z,10.50
2022-12-03T00:54:02.292Z,10.10
2022-12-03T00:56:28.774Z,10.13
2022-12-03T00:58:55.197Z,10.30
2022-12-03T01:01:25.531Z,10.13
2022-12-03T01:03:51.951Z,10.63
2022-12-03T01:06:18.350Z,9.75
2022-12-03T01:08:44.794Z,11.15
2022-12-03T01:11:31.066Z,10.40
2022-12-03T01:13:57.424Z,11.63
2022-12-03T01:16:27.509Z,10.30
2022-12-03T01:18:55.034Z,10.80
2022-12-03T01:21:21.364Z,10.75
2022-12-03T01:23:47.763Z,10.87
2022-12-03T01:26:14.205Z,11.18
2022-12-03T01:28:41.986Z,9.75
2022-12-03T01:31:27.840Z,10.57
2022-12-03T01:33:54.341Z,9.82
2022-12-03T01:36:21.038Z,11.13
2022-12-03T01:38:48.700Z,10.27
2022-12-03T01:41:17.480Z,10.48
2022-12-03T01:43:44.118Z,9.48
2022-12-03T01:46:16.793Z,11.10
2022-12-03T01:48:44.065Z,10.70
2022-12-03T01:51:12.066Z,9.75
2022-12-03T01:53:38.492Z,10.60
2022-12-03T01:56:05.089Z,11.25
2022-12-03T01:58:31.678Z,10.35
2022-12-03T02:01:01.711Z,10.00
2022-12-03T02:03:28.424Z,9.20
2022-12-03T02:05:54.817Z,10.57
2022-12-03T02:08:31.957Z,10.00
2022-12-03T02:11:02.321Z,10.82
2022-12-03T02:13:28.909Z,11.20
2022-12-03T02:15:55.487Z,11.40
2022-12-03T02:18:21.880Z,10.20
2022-12-03T02:21:26.959Z,10.63
2022-12-03T02:24:07.590Z,11.35
2022-12-03T02:26:33.947Z,10.67
2022-12-03T02:29:01.262Z,10.98
2022-12-03T02:31:29.975Z,9.95
2022-12-03T02:33:56.652Z,10.85
2022-12-03T02:36:23.377Z,11.90
2022-12-03T02:38:50.995Z,10.20
2022-12-03T02:41:39.145Z,10.13
2022-12-03T02:44:08.327Z,11.15
2022-12-03T02:46:35.464Z,9.80
2022-12-03T02:49:03.623Z,10.25
2022-12-03T02:51:31.151Z,9.77
2022-12-03T02:53:57.939Z,10.73
2022-12-03T02:56:29.530Z,10.02
2022-12-03T02:59:00.499Z,11.35
2022-12-03T03:01:27.139Z,10.52
2022-12-03T03:03:54.014Z,10.97
2022-12-03T03:06:21.303Z,11.13
2022-12-03T03:08:48.152Z,10.55
2022-12-03T03:11:14.878Z,11.27
2022-12-03T03:13:41.318Z,11.23
2022-12-03T03:16:08.576Z,11.30
2022-12-03T03:18:35.809Z,11.55
2022-12-03T03:21:03.804Z,11.25
2022-12-03T03:23:30.437Z,11.35
2022-12-03T03:26:01.049Z,11.73
2022-12-03T03:28:30.156Z,10.87
2022-12-03T03:30:58.798Z,10.48
2022-12-03T03:33:25.196Z,11.07
2022-12-03T03:35:51.805Z,11.30
2022-12-03T03:38:20.414Z,10.98
2022-12-03T03:40:50.684Z,11.07
2022-12-03T03:43:17.594Z,12.18
2022-12-03T03:45:51.499Z,10.63
2022-12-03T03:48:18.744Z,12.07
2022-12-03T03:50:45.709Z,10.70
2022-12-03T03:53:12.989Z,11.77
2022-12-03T03:55:39.659Z,10.68
2022-12-03T03:58:15.037Z,10.77
2022-12-03T04:00:45.088Z,10.75
2022-12-03T04:03:23.869Z,12.57
2022-12-03T04:05:52.416Z,10.50
2022-12-03T04:08:19.353Z,10.93
2022-12-03T04:11:04.407Z,11.88
2022-12-03T04:13:30.979Z,11.05
2022-12-03T04:15:57.342Z,12.32
2022-12-03T04:18:42.325Z,10.77
2022-12-03T04:21:38.702Z,11.77
2022-12-03T04:24:06.559Z,11.93
2022-12-03T04:26:51.886Z,11.15
2022-12-03T04:29:19.672Z,11.48
2022-12-03T04:32:06.277Z,11.00
2022-12-03T04:35:08.397Z,11.10
2022-12-03T04:37:34.849Z,12.35
2022-12-03T04:40:01.293Z,11.40
2022-12-03T04:42:27.645Z,11.85
2022-12-03T04:44:54.313Z,11.50
2022-12-03T04:47:21.975Z,13.30
2022-12-03T04:49:50.765Z,12.40
2022-12-03T04:52:19.278Z,11.48
2022-12-03T04:54:45.688Z,11.00
2022-12-03T04:57:12.328Z,11.73
2022-12-03T04:59:38.869Z,11.77
2022-12-03T05:02:06.561Z,12.13
2022-12-03T05:04:33.610Z,12.32
2022-12-03T05:06:59.956Z,12.48
2022-12-03T05:09:26.275Z,11.57
2022-12-03T05:11:52.617Z,11.85
2022-12-03T05:14:19.154Z,11.68
2022-12-03T05:16:45.607Z,12.02
2022-12-03T05:19:12.103Z,13.77
2022-12-03T05:21:38.653Z,12.43
2022-12-03T05:24:05.773Z,12.25
2022-12-03T05:26:32.271Z,13.55
2022-12-03T05:28:58.670Z,11.98
2022-12-03T05:31:25.107Z,13.38
2022-12-03T05:33:51.554Z,12.37
2022-12-03T05:36:17.937Z,13.38
2022-12-03T05:38:44.393Z,12.85
2022-12-03T05:41:37.121Z,13.77
2022-12-03T05:44:03.484Z,12.90
2022-12-03T05:46:30.048Z,12.87
2022-12-03T05:48:57.485Z,12.57
2022-12-03T05:51:23.886Z,12.98
2022-12-03T05:53:50.210Z,11.63
2022-12-03T05:56:16.607Z,13.38
2022-12-03T05:58:43.032Z,14.63
2022-12-03T06:01:09.386Z,13.20
2022-12-03T06:03:36.269Z,13.02
2022-12-03T06:06:02.726Z,13.20
2022-12-03T06:08:29.082Z,13.80
2022-12-03T06:10:55.479Z,12.93
2022-12-03T06:13:21.837Z,12.80
2022-12-03T06:15:48.261Z,13.18
2022-12-03T06:18:14.814Z,14.07
2022-12-03T06:20:42.215Z,12.40
2022-12-03T06:23:08.779Z,12.37
2022-12-03T06:25:35.218Z,12.38
2022-12-03T06:28:01.544Z,13.82
2022-12-03T06:30:27.981Z,13.48
2022-12-03T06:32:54.647Z,12.82
2022-12-03T06:35:20.966Z,12.17
2022-12-03T06:37:47.302Z,13.90
2022-12-03T06:40:14.318Z,13.52
2022-12-03T06:42:40.667Z,12.85
2022-12-03T06:45:07.140Z,12.63
2022-12-03T06:47:33.484Z,12.70
2022-12-03T06:50:02.158Z,13.13
2022-12-03T06:52:28.661Z,12.35
2022-12-03T06:54:55.214Z,12.40
2022-12-03T06:57:31.238Z,12.05
2022-12-03T06:59:57.814Z,12.27
2022-12-03T07:02:24.528Z,12.48
2022-12-03T07:04:50.975Z,12.00
2022-12-03T07:07:17.301Z,12.38
2022-12-03T07:09:44.782Z,11.68
2022-12-03T07:12:11.146Z,11.80
2022-12-03T07:14:42.314Z,12.60
2022-12-03T07:17:08.606Z,12.15
2022-12-03T07:19:36.772Z,11.60
2022-12-03T07:22:03.307Z,12.65
2022-12-03T07:24:33.552Z,12.40
2022-12-03T07:26:59.921Z,11.68
2022-12-03T07:29:26.347Z,12.82
2022-12-03T07:31:52.701Z,12.25
2022-12-03T07:34:19.048Z,11.85
2022-12-03T07:36:45.370Z,13.10
2022-12-03T07:39:13.258Z,13.50
2022-12-03T07:41:39.594Z,13.27
2022-12-03T07:44:12.411Z,13.52
2022-12-03T07:46:40.549Z,13.13
2022-12-03T07:49:09.157Z,12.60
2022-12-03T07:51:35.874Z,12.95
2022-12-03T07:54:02.183Z,13.75
2022-12-03T07:56:28.518Z,12.70
2022-12-03T07:58:57.303Z,13.68
2022-12-03T08:01:32.187Z,14.23
2022-12-03T08:03:58.726Z,13.57
2022-12-03T08:06:25.033Z,13.20
2022-12-03T08:08:51.436Z,12.35
2022-12-03T08:11:17.772Z,13.73
2022-12-03T08:13:44.127Z,13.77
2022-12-03T08:16:25.732Z,12.40
2022-12-03T08:18:54.885Z,12.23
2022-12-03T08:21:22.710Z,14.15
2022-12-03T08:23:49.214Z,14.60
2022-12-03T08:26:26.112Z,12.47
2022-12-03T08:28:53.429Z,12.82
2022-12-03T08:31:28.037Z,13.80
2022-12-03T08:34:15.343Z,13.50
2022-12-03T08:36:41.647Z,13.18
2022-12-03T08:39:25.973Z,12.93
2022-12-03T08:42:15.597Z,14.02
2022-12-03T08:44:41.999Z,13.38
2022-12-03T08:47:35.239Z,13.65
2022-12-03T08:50:32.217Z,12.85
2022-12-03T08:53:14.631Z,14.30
2022-12-03T08:55:54.065Z,13.23
2022-12-03T08:58:38.099Z,12.65
2022-12-03T09:01:10.542Z,13.38
2022-12-03T09:03:50.383Z,13.52
2022-12-03T09:06:17.077Z,12.23
2022-12-03T09:08:43.655Z,14.23
2022-12-03T09:11:12.027Z,13.20
2022-12-03T09:13:38.513Z,13.57
2022-12-03T09:16:05.146Z,13.65
2022-12-03T09:18:32.429Z,14.93
2022-12-03T09:20:58.839Z,13.43
2022-12-03T09:23:25.137Z,14.50
2022-12-03T09:25:51.430Z,14.05
2022-12-03T09:28:17.760Z,13.02
2022-12-03T09:30:44.075Z,14.60
2022-12-03T09:33:10.535Z,13.35
2022-12-03T09:35:37.348Z,13.23
2022-12-03T09:38:03.684Z,12.32
2022-12-03T09:40:30.131Z,12.27
2022-12-03T09:42:58.705Z,11.23
2022-12-03T09:45:27.191Z,12.05
2022-12-03T09:47:54.913Z,12.73
2022-12-03T09:50:25.223Z,12.25
2022-12-03T09:52:54.787Z,10.90
2022-12-03T09:55:24.088Z,11.00
2022-12-03T09:57:52.655Z,10.98
2022-12-03T10:00:25.490Z,11.98
2022-12-03T10:02:54.722Z,11.32
2022-12-03T10:05:22.521Z,10.48
2022-12-03T10:07:50.591Z,10.97
2022-12-03T10:10:20.870Z,10.98
2022-12-03T10:12:47.607Z,10.70
2022-12-03T10:15:17.872Z,11.45
2022-12-03T10:17:46.272Z,12.80
2022-12-03T10:20:16.934Z,11.00
2022-12-03T10:22:43.467Z,11.68
2022-12-03T10:25:15.842Z,12.10
2022-12-03T10:27:42.923Z,11.52
2022-12-03T10:30:19.586Z,11.40
2022-12-03T10:32:50.323Z,11.50
2022-12-03T10:35:24.646Z,13.40
2022-12-03T10:38:23.048Z,12.95
2022-12-03T10:40:49.597Z,13.25
2022-12-03T10:43:25.138Z,12.52
2022-12-03T10:46:04.853Z,13.67
2022-12-03T10:48:31.414Z,12.63
2022-12-03T10:51:21.330Z,11.93
2022-12-03T10:53:49.238Z,12.15
2022-12-03T10:56:26.443Z,13.95
2022-12-03T10:58:53.116Z,12.17
2022-12-03T11:01:24.755Z,13.23
2022-12-03T11:03:52.444Z,13.52
2022-12-03T11:06:21.775Z,12.45
2022-12-03T11:08:57.514Z,12.05
2022-12-03T11:11:30.839Z,12.87
2022-12-03T11:13:59.218Z,13.57
2022-12-03T11:16:51.798Z,12.05
2022-12-03T11:19:36.438Z,12.88
2022-12-03T11:22:05.881Z,11.65
2022-12-03T11:24:34.770Z,13.13
2022-12-03T11:27:01.867Z,12.63
2022-12-03T11:29:48.820Z,12.55
2022-12-03T11:32:45.204Z,11.65
2022-12-03T11:35:23.856Z,10.52
2022-12-03T11:37:50.326Z,10.47
2022-12-03T11:40:18.119Z,9.75
2022-12-03T11:42:46.609Z,10.15
2022-12-03T11:45:22.642Z,9.25
2022-12-03T11:47:58.240Z,9.85
2022-12-03T11:50:39.064Z,9.10
2022-12-03T11:53:26.861Z,9.30
2022-12-03T11:56:12.301Z,9.07
2022-12-03T11:58:42.290Z,8.63
2022-12-03T12:01:08.956Z,8.05
2022-12-03T12:03:47.458Z,7.87
2022-12-03T12:06:20.400Z,7.60
2022-12-03T12:08:49.746Z,7.97
2022-12-03T12:11:20.118Z,9.27
2022-12-03T12:13:53.409Z,8.38
2022-12-03T12:16:58.438Z,8.43
2022-12-03T12:19:29.644Z,9.32
2022-12-03T12:22:12.486Z,8.65
2022-12-03T12:24:47.768Z,8.63
2022-12-03T12:27:29.501Z,9.23
2022-12-03T12:29:58.607Z,9.00
2022-12-03T12:32:34.640Z,10.30
2022-12-03T12:35:18.876Z,10.20
2022-12-03T12:38:00.826Z,9.18
2022-12-03T12:40:30.343Z,9.98
2022-12-03T12:43:09.942Z,8.83
2022-12-03T12:45:46.671Z,8.80
2022-12-03T12:48:29.006Z,9.05
2022-12-03T12:51:11.211Z,9.13
2022-12-03T12:53:39.524Z,8.05
2022-12-03T12:56:18.847Z,9.27
2022-12-03T12:58:48.576Z,8.85
2022-12-03T13:01:37.437Z,8.73
2022-12-03T13:04:15.689Z,8.68
2022-12-03T13:06:47.122Z,10.32
2022-12-03T13:09:24.506Z,10.40
2022-12-03T13:12:06.370Z,9.88
2022-12-03T13:14:43.851Z,10.40
2022-12-03T13:17:22.451Z,10.23
2022-12-03T13:19:53.998Z,10.35
2022-12-03T13:22:28.158Z,9.40
2022-12-03T13:25:00.173Z,11.15
2022-12-03T13:27:36.762Z,11.48
2022-12-03T13:30:21.086Z,9.93
2022-12-03T13:32:47.533Z,9.68
2022-12-03T13:35:24.878Z,10.03
2022-12-03T13:37:51.487Z,9.75
2022-12-03T13:40:27.654Z,11.45
2022-12-03T13:42:55.074Z,10.65
2022-12-03T13:45:24.580Z,10.60
2022-12-03T13:47:57.453Z,11.07
2022-12-03T13:50:44.931Z,11.65
2022-12-03T13:53:11.359Z,14.13
2022-12-03T13:55:45.007Z,13.05
2022-12-03T13:58:11.350Z,13.45
2022-12-03T14:00:37.862Z,12.80
2022-12-03T14:03:05.674Z,13.52
2022-12-03T14:05:32.110Z,15.05
2022-12-03T14:08:01.800Z,16.42
2022-12-03T14:10:29.431Z,12.70
2022-12-03T14:12:56.611Z,13.90
2022-12-03T14:15:24.905Z,14.02
2022-12-03T14:17:51.322Z,14.27
2022-12-03T14:20:18.598Z,13.73
2022-12-03T14:22:45.248Z,13.93
2022-12-03T14:25:15.682Z,14.40
2022-12-03T14:27:42.247Z,13.10
2022-12-03T14:30:09.510Z,12.43
2022-12-03T14:32:37.221Z,12.73
2022-12-03T14:35:08.317Z,13.40
2022-12-03T14:37:36.331Z,12.33
2022-12-03T14:40:05.777Z,12.38
2022-12-03T14:42:32.147Z,11.10
2022-12-03T14:44:58.505Z,10.13
2022-12-03T14:47:25.049Z,10.90
2022-12-03T14:49:52.544Z,10.57
2022-12-03T14:52:20.018Z,11.35
2022-12-03T14:54:46.515Z,10.00
2022-12-03T14:57:15.724Z,10.98
2022-12-03T14:59:46.859Z,10.00
2022-12-03T15:02:13.745Z,9.47
2022-12-03T15:04:41.147Z,10.85
2022-12-03T15:07:08.816Z,10.70
2022-12-03T15:09:36.514Z,10.27
2022-12-03T15:12:03.889Z,10.43
2022-12-03T15:14:30.307Z,9.77
2022-12-03T15:16:56.876Z,10.50
2022-12-03T15:19:23.261Z,9.73
2022-12-03T15:21:56.532Z,9.43
2022-12-03T15:24:27.606Z,9.50
2022-12-03T15:26:54.099Z,11.30
2022-12-03T15:29:21.334Z,10.38
2022-12-03T15:31:47.707Z,10.95
2022-12-03T15:34:23.170Z,11.57
2022-12-03T15:36:50.359Z,11.60
2022-12-03T15:39:16.877Z,10.80
2022-12-03T15:41:48.102Z,13.20
2022-12-03T15:44:14.522Z,13.75
2022-12-03T15:46:52.324Z,12.13
2022-12-03T15:49:19.206Z,15.63
2022-12-03T15:51:45.896Z,14.37
2022-12-03T15:54:12.466Z,13.57
2022-12-03T15:56:38.922Z,14.43
2022-12-03T15:59:05.359Z,15.38
2022-12-03T16:01:32.111Z,15.25
2022-12-03T16:03:58.540Z,14.67
2022-12-03T16:06:24.846Z,14.48
2022-12-03T16:08:51.158Z,15.63
2022-12-03T16:11:17.565Z,16.33
2022-12-03T16:13:47.228Z,17.85
2022-12-03T16:16:13.889Z,15.90
2022-12-03T16:18:47.912Z,15.95
2022-12-03T16:21:14.481Z,15.23
2022-12-03T16:23:45.456Z,16.98
2022-12-03T16:26:11.973Z,15.82
2022-12-03T16:28:38.294Z,17.40
2022-12-03T16:31:04.822Z,16.00
2022-12-03T16:33:45.555Z,15.93
2022-12-03T16:36:20.240Z,15.40
2022-12-03T16:38:46.727Z,14.80
2022-12-03T16:41:13.272Z,14.20
2022-12-03T16:43:41.229Z,15.30
2022-12-03T16:46:17.167Z,14.73
2022-12-03T16:48:43.617Z,13.70
2022-12-03T16:51:10.468Z,14.77
2022-12-03T16:53:41.658Z,14.27
2022-12-03T16:56:08.698Z,14.05
2022-12-03T16:58:35.151Z,13.13
2022-12-03T17:01:01.960Z,14.40
2022-12-03T17:03:33.565Z,14.10
2022-12-03T17:06:07.142Z,16.30
2022-12-03T17:08:33.735Z,14.45
2022-12-03T17:11:00.988Z,15.02
2022-12-03T17:13:38.868Z,13.50
2022-12-03T17:16:08.129Z,14.55
2022-12-03T17:18:37.084Z,14.77
2022-12-03T17:21:03.633Z,16.45
2022-12-03T17:23:29.934Z,14.48
2022-12-03T17:25:56.363Z,15.20
2022-12-03T17:28:22.719Z,13.05
2022-12-03T17:30:49.245Z,16.27
2022-12-03T17:33:15.804Z,13.85
2022-12-03T17:35:43.203Z,13.75
2022-12-03T17:38:09.553Z,14.90
2022-12-03T17:40:35.919Z,14.77
2022-12-03T17:43:02.247Z,15.00
2022-12-03T17:45:28.760Z,15.15
2022-12-03T17:48:04.727Z,14.13
2022-12-03T17:50:31.298Z,13.80
2022-12-03T17:52:59.013Z,14.13
2022-12-03T17:55:41.211Z,14.90
2022-12-03T17:58:10.788Z,15.90
2022-12-03T18:00:37.158Z,14.30
2022-12-03T18:03:03.578Z,16.65
2022-12-03T18:05:30.005Z,14.73
2022-12-03T18:07:56.564Z,16.57
2022-12-03T18:10:22.919Z,16.95
2022-12-03T18:12:49.255Z,16.52
2022-12-03T18:15:15.613Z,15.30
2022-12-03T18:17:41.950Z,15.40
2022-12-03T18:20:08.453Z,15.37
2022-12-03T18:22:35.353Z,15.38
2022-12-03T18:25:02.115Z,15.40
2022-12-03T18:27:28.457Z,14.30
2022-12-03T18:29:58.119Z,15.05
2022-12-03T18:32:29.689Z,15.20
2022-12-03T18:34:57.294Z,15.32
2022-12-03T18:37:26.723Z,14.95
2022-12-03T18:39:53.672Z,16.15
2022-12-03T18:42:21.949Z,15.77
2022-12-03T18:44:50.212Z,13.20
2022-12-03T18:47:20.512Z,14.45
2022-12-03T18:49:47.273Z,15.02
2022-12-03T18:52:15.312Z,15.05
2022-12-03T18:54:41.776Z,16.33
2022-12-03T18:57:08.771Z,14.20
2022-12-03T18:59:35.247Z,15.57
2022-12-03T19:02:01.728Z,15.48
2022-12-03T19:04:28.227Z,15.30
2022-12-03T19:06:56.266Z,14.38
2022-12-03T19:09:22.878Z,15.10
2022-12-03T19:11:49.396Z,13.88
2022-12-03T19:14:15.690Z,13.85
2022-12-03T19:16:45.580Z,13.93
2022-12-03T19:19:12.063Z,14.45
2022-12-03T19:21:38.470Z,14.90
2022-12-03T19:24:23.789Z,15.25
2022-12-03T19:26:54.602Z,16.42
2022-12-03T19:29:23.166Z,14.85
2022-12-03T19:31:51.200Z,14.43
2022-12-03T19:34:18.009Z,15.30
2022-12-03T19:36:44.415Z,14.38
2022-12-03T19:39:11.164Z,14.18
2022-12-03T19:41:37.612Z,15.95
2022-12-03T19:44:10.600Z,15.52
2022-12-03T19:46:37.429Z,14.23
2022-12-03T19:49:05.303Z,14.93
2022-12-03T19:51:35.365Z,15.80
2022-12-03T19:54:06.736Z,15.18
2022-12-03T19:56:33.548Z,15.70
2022-12-03T19:59:12.334Z,15.20
2022-12-03T20:01:44.183Z,14.63
2022-12-03T20:04:11.585Z,14.32
2022-12-03T20:06:39.744Z,15.07
2022-12-03T20:09:12.657Z,14.35
2022-12-03T20:11:41.140Z,15.17
2022-12-03T20:14:15.542Z,14.40
2022-12-03T20:16:42.467Z,14.32
2022-12-03T20:19:19.689Z,15.05
2022-12-03T20:21:46.462Z,13.75
2022-12-03T20:24:15.551Z,14.57
2022-12-03T20:26:42.393Z,15.30
2022-12-03T20:29:18.017Z,16.00
2022-12-03T20:31:44.465Z,15.75
2022-12-03T20:34:11.218Z,15.07
2022-12-03T20:36:37.822Z,15.00
2022-12-03T20:39:06.517Z,14.43
2022-12-03T20:41:35.571Z,13.23
2022-12-03T20:44:03.035Z,13.40
2022-12-03T20:46:31.313Z,15.00
2022-12-03T20:48:58.530Z,15.33
2022-12-03T20:51:27.606Z,13.43
2022-12-03T20:53:55.374Z,15.32
2022-12-03T20:56:24.750Z,15.57
2022-12-03T20:58:51.168Z,14.32
2022-12-03T21:01:26.495Z,15.40
2022-12-03T21:03:55.339Z,14.82
2022-12-03T21:06:23.174Z,14.90
2022-12-03T21:08:58.499Z,15.73
2022-12-03T21:11:30.276Z,14.32
2022-12-03T21:13:57.714Z,14.07
2022-12-03T21:16:59.021Z,16.23
2022-12-03T21:19:18.254Z,15.10
2022-12-03T21:21:44.629Z,14.30
2022-12-03T21:24:12.431Z,13.75
2022-12-03T21:26:39.291Z,14.80
2022-12-03T21:29:05.795Z,15.13
2022-12-03T21:31:32.400Z,14.90
2022-12-03T21:33:59.031Z,15.35
2022-12-03T21:36:25.662Z,13.77
2022-12-03T21:38:52.706Z,14.73
2022-12-03T21:41:19.279Z,15.52
2022-12-03T21:43:45.898Z,15.80
2022-12-03T21:47:12.464Z,14.88
2022-12-03T21:49:04.129Z,14.93
2022-12-03T21:51:30.606Z,16.03
2022-12-03T21:53:56.981Z,15.63
2022-12-03T21:56:23.527Z,15.20
2022-12-03T21:58:52.879Z,15.27
2022-12-03T22:01:24.089Z,16.38
2022-12-03T22:03:50.745Z,15.77
2022-12-03T22:06:17.959Z,16.20
2022-12-03T22:08:44.470Z,15.15
2022-12-03T22:11:18.922Z,17.13
2022-12-03T22:13:45.740Z,15.30
2022-12-03T22:16:15.861Z,15.23
2022-12-03T22:18:42.893Z,16.35
2022-12-03T22:21:12.043Z,14.45
2022-12-03T22:23:39.147Z,14.30
2022-12-03T22:26:14.458Z,15.93
2022-12-03T22:28:46.468Z,16.00
2022-12-03T22:31:13.721Z,16.33
2022-12-03T22:33:40.601Z,15.63
2022-12-03T22:36:18.051Z,14.95
2022-12-03T22:38:46.786Z,16.27
2022-12-03T22:41:14.479Z,15.60
2022-12-03T22:43:41.151Z,16.35
2022-12-03T22:46:12.117Z,15.02
2022-12-03T22:48:39.538Z,16.23
2022-12-03T22:51:13.119Z,15.50
2022-12-03T22:53:39.475Z,17.40
2022-12-03T22:56:06.178Z,17.13
2022-12-03T22:58:32.597Z,16.63
2022-12-03T23:01:02.924Z,17.80
2022-12-03T23:03:30.445Z,15.68
2022-12-03T23:05:57.799Z,16.83
2022-12-03T23:08:24.189Z,15.70
2022-12-03T23:10:52.541Z,18.08
2022-12-03T23:13:20.864Z,16.25
2022-12-03T23:15:49.219Z,16.63
2022-12-03T23:18:16.414Z,17.67
2022-12-03T23:20:45.166Z,17.85
2022-12-03T23:23:11.710Z,16.23
2022-12-03T23:25:38.345Z,16.88
2022-12-03T23:28:05.470Z,16.73
2022-12-03T23:30:36.055Z,17.00
2022-12-03T23:33:03.159Z,18.60
2022-12-03T23:35:29.557Z,17.40
2022-12-03T23:37:55.861Z,18.30
2022-12-03T23:40:22.251Z,16.30
2022-12-03T23:42:48.914Z,17.30
2022-12-03T23:45:15.644Z,17.58
2022-12-03T23:47:42.215Z,17.48
2022-12-03T23:50:09.032Z,17.58
2022-12-03T23:52:36.434Z,17.27
2022-12-03T23:55:03.148Z,17.23
2022-12-03T23:57:29.681Z,17.92
2022-12-03T23:59:56.597Z,17.00
